sensor_id;sensor_type;location;lat;lon;timestamp;P1;durP1;ratioP1;P2;durP2;ratioP2
2860;SDS011;1438;50.922;6.704;2023-05-19T00:00:58;8.38;;;4.70;;
2860;SDS011;1438;50.922;6.704;2023-05-19T00:03:24;7.55;;;5.10;;
2860;SDS011;1438;50.922;6.704;2023-05-19T00:05:51;7.10;;;5.47;;
2860;SDS011;1438;50.922;6.704;2023-05-19T00:08:18;10.55;;;5.63;;
2860;SDS011;1438;50.922;6.704;2023-05-19T00:10:44;6.72;;;5.50;;
2860;SDS011;1438;50.922;6.704;2023-05-19T00:13:10;10.18;;;6.15;;
2860;SDS011;1438;50.922;6.704;2023-05-19T00:15:36;10.55;;;5.50;;
2860;SDS011;1438;50.922;6.704;2023-05-19T00:18:02;9.07;;;6.53;;
2860;SDS011;1438;50.922;6.704;2023-05-19T00:20:29;13.20;;;7.22;;
2860;SDS011;1438;50.922;6.704;2023-05-19T00:22:54;10.60;;;6.27;;
2860;SDS011;1438;50.922;6.704;2023-05-19T00:25:20;12.80;;;6.50;;
2860;SDS011;1438;50.922;6.704;2023-05-19T00:27:47;10.90;;;6.80;;
2860;SDS011;1438;50.922;6.704;2023-05-19T00:30:13;14.93;;;7.50;;
2860;SDS011;1438;50.922;6.704;2023-05-19T00:32:39;13.25;;;7.20;;
2860;SDS011;1438;50.922;6.704;2023-05-19T00:35:05;13.07;;;6.80;;
2860;SDS011;1438;50.922;6.704;2023-05-19T00:37:31;11.30;;;8.30;;
2860;SDS011;1438;50.922;6.704;2023-05-19T00:39:57;11.33;;;7.40;;
2860;SDS011;1438;50.922;6.704;2023-05-19T00:42:23;10.10;;;6.72;;
2860;SDS011;1438;50.922;6.704;2023-05-19T00:44:49;9.00;;;7.95;;
2860;SDS011;1438;50.922;6.704;2023-05-19T00:47:16;16.25;;;8.15;;
2860;SDS011;1438;50.922;6.704;2023-05-19T00:49:42;14.30;;;7.90;;
2860;SDS011;1438;50.922;6.704;2023-05-19T00:52:08;11.00;;;7.10;;
2860;SDS011;1438;50.922;6.704;2023-05-19T00:54:34;22.95;;;8.45;;
2860;SDS011;1438;50.922;6.704;2023-05-19T00:57:00;10.68;;;9.35;;
2860;SDS011;1438;50.922;6.704;2023-05-19T00:59:27;10.85;;;7.22;;
2860;SDS011;1438;50.922;6.704;2023-05-19T01:01:53;15.30;;;7.53;;
2860;SDS011;1438;50.922;6.704;2023-05-19T01:04:19;13.90;;;8.65;;
2860;SDS011;1438;50.922;6.704;2023-05-19T01:06:46;12.00;;;7.82;;
2860;SDS011;1438;50.922;6.704;2023-05-19T01:09:13;12.50;;;8.60;;
2860;SDS011;1438;50.922;6.704;2023-05-19T01:11:39;12.05;;;8.60;;
2860;SDS011;1438;50.922;6.704;2023-05-19T01:14:05;11.70;;;8.00;;
2860;SDS011;1438;50.922;6.704;2023-05-19T01:16:35;9.57;;;8.30;;
2860;SDS011;1438;50.922;6.704;2023-05-19T01:32:00;9.00;;;8.10;;
2860;SDS011;1438;50.922;6.704;2023-05-19T01:34:28;12.23;;;8.43;;
2860;SDS011;1438;50.922;6.704;2023-05-19T01:36:55;12.40;;;7.35;;
2860;SDS011;1438;50.922;6.704;2023-05-19T01:39:22;14.05;;;8.98;;
2860;SDS011;1438;50.922;6.704;2023-05-19T01:41:49;8.93;;;7.68;;
2860;SDS011;1438;50.922;6.704;2023-05-19T01:44:16;10.32;;;7.53;;
2860;SDS011;1438;50.922;6.704;2023-05-19T01:46:42;14.32;;;7.63;;
2860;SDS011;1438;50.922;6.704;2023-05-19T01:49:08;13.35;;;7.53;;
2860;SDS011;1438;50.922;6.704;2023-05-19T01:51:34;13.85;;;7.75;;
2860;SDS011;1438;50.922;6.704;2023-05-19T01:54:00;16.30;;;8.90;;
2860;SDS011;1438;50.922;6.704;2023-05-19T01:56:31;14.80;;;8.77;;
2860;SDS011;1438;50.922;6.704;2023-05-19T01:59:00;15.63;;;10.10;;
2860;SDS011;1438;50.922;6.704;2023-05-19T02:16:47;10.53;;;7.87;;
2860;SDS011;1438;50.922;6.704;2023-05-19T02:19:20;11.07;;;7.82;;
2860;SDS011;1438;50.922;6.704;2023-05-19T02:21:46;16.42;;;9.20;;
2860;SDS011;1438;50.922;6.704;2023-05-19T02:24:12;10.23;;;8.10;;
2860;SDS011;1438;50.922;6.704;2023-05-19T02:26:38;9.80;;;8.80;;
2860;SDS011;1438;50.922;6.704;2023-05-19T02:29:04;14.00;;;8.70;;
2860;SDS011;1438;50.922;6.704;2023-05-19T02:31:30;13.90;;;8.30;;
2860;SDS011;1438;50.922;6.704;2023-05-19T02:33:56;11.07;;;8.27;;
2860;SDS011;1438;50.922;6.704;2023-05-19T02:36:22;14.47;;;7.67;;
2860;SDS011;1438;50.922;6.704;2023-05-19T02:38:50;10.80;;;7.78;;
2860;SDS011;1438;50.922;6.704;2023-05-19T02:41:16;10.35;;;8.07;;
2860;SDS011;1438;50.922;6.704;2023-05-19T02:43:42;13.10;;;9.10;;
2860;SDS011;1438;50.922;6.704;2023-05-19T02:46:08;8.82;;;7.93;;
2860;SDS011;1438;50.922;6.704;2023-05-19T02:48:34;14.00;;;8.90;;
2860;SDS011;1438;50.922;6.704;2023-05-19T02:51:00;13.47;;;8.30;;
2860;SDS011;1438;50.922;6.704;2023-05-19T02:53:26;11.77;;;8.18;;
2860;SDS011;1438;50.922;6.704;2023-05-19T02:55:52;10.40;;;8.10;;
2860;SDS011;1438;50.922;6.704;2023-05-19T02:58:18;17.00;;;8.60;;
2860;SDS011;1438;50.922;6.704;2023-05-19T03:00:44;11.80;;;7.87;;
2860;SDS011;1438;50.922;6.704;2023-05-19T03:03:10;10.43;;;8.40;;
2860;SDS011;1438;50.922;6.704;2023-05-19T03:05:37;11.77;;;8.27;;
2860;SDS011;1438;50.922;6.704;2023-05-19T03:08:03;11.60;;;8.60;;
2860;SDS011;1438;50.922;6.704;2023-05-19T03:10:30;11.57;;;7.30;;
2860;SDS011;1438;50.922;6.704;2023-05-19T03:12:56;8.47;;;7.57;;
2860;SDS011;1438;50.922;6.704;2023-05-19T03:15:22;15.20;;;9.23;;
2860;SDS011;1438;50.922;6.704;2023-05-19T03:17:48;14.37;;;8.87;;
2860;SDS011;1438;50.922;6.704;2023-05-19T03:20:14;13.70;;;8.30;;
2860;SDS011;1438;50.922;6.704;2023-05-19T03:22:40;18.10;;;8.32;;
2860;SDS011;1438;50.922;6.704;2023-05-19T03:25:06;17.80;;;8.48;;
2860;SDS011;1438;50.922;6.704;2023-05-19T03:27:32;10.68;;;8.43;;
2860;SDS011;1438;50.922;6.704;2023-05-19T03:29:58;14.17;;;9.27;;
2860;SDS011;1438;50.922;6.704;2023-05-19T03:32:24;12.30;;;8.67;;
2860;SDS011;1438;50.922;6.704;2023-05-19T03:34:50;9.52;;;7.95;;
2860;SDS011;1438;50.922;6.704;2023-05-19T03:37:16;13.75;;;8.30;;
2860;SDS011;1438;50.922;6.704;2023-05-19T03:39:42;12.82;;;8.60;;
2860;SDS011;1438;50.922;6.704;2023-05-19T03:42:08;14.63;;;9.57;;
2860;SDS011;1438;50.922;6.704;2023-05-19T03:44:34;13.20;;;7.57;;
2860;SDS011;1438;50.922;6.704;2023-05-19T03:47:00;22.00;;;10.18;;
2860;SDS011;1438;50.922;6.704;2023-05-19T03:49:26;10.30;;;8.93;;
2860;SDS011;1438;50.922;6.704;2023-05-19T03:51:52;13.63;;;8.85;;
2860;SDS011;1438;50.922;6.704;2023-05-19T03:54:18;12.82;;;9.23;;
2860;SDS011;1438;50.922;6.704;2023-05-19T03:56:46;13.98;;;8.55;;
2860;SDS011;1438;50.922;6.704;2023-05-19T03:59:12;12.98;;;8.60;;
2860;SDS011;1438;50.922;6.704;2023-05-19T04:01:40;12.95;;;8.60;;
2860;SDS011;1438;50.922;6.704;2023-05-19T04:04:06;12.20;;;8.63;;
2860;SDS011;1438;50.922;6.704;2023-05-19T04:06:32;10.30;;;8.30;;
2860;SDS011;1438;50.922;6.704;2023-05-19T04:08:58;12.55;;;7.55;;
2860;SDS011;1438;50.922;6.704;2023-05-19T04:11:24;13.43;;;8.52;;
2860;SDS011;1438;50.922;6.704;2023-05-19T04:13:50;13.07;;;9.63;;
2860;SDS011;1438;50.922;6.704;2023-05-19T04:16:16;11.23;;;8.30;;
2860;SDS011;1438;50.922;6.704;2023-05-19T04:18:42;12.20;;;8.93;;
2860;SDS011;1438;50.922;6.704;2023-05-19T04:21:10;15.52;;;8.93;;
2860;SDS011;1438;50.922;6.704;2023-05-19T04:23:36;15.85;;;8.80;;
2860;SDS011;1438;50.922;6.704;2023-05-19T04:26:02;12.48;;;8.77;;
2860;SDS011;1438;50.922;6.704;2023-05-19T04:28:30;12.65;;;8.90;;
2860;SDS011;1438;50.922;6.704;2023-05-19T04:30:57;13.70;;;8.07;;
2860;SDS011;1438;50.922;6.704;2023-05-19T04:33:24;12.30;;;9.25;;
2860;SDS011;1438;50.922;6.704;2023-05-19T04:35:50;14.73;;;9.55;;
2860;SDS011;1438;50.922;6.704;2023-05-19T04:38:16;15.48;;;8.80;;
2860;SDS011;1438;50.922;6.704;2023-05-19T04:40:43;12.02;;;8.68;;
2860;SDS011;1438;50.922;6.704;2023-05-19T04:43:10;17.60;;;9.80;;
2860;SDS011;1438;50.922;6.704;2023-05-19T04:45:36;12.18;;;7.80;;
2860;SDS011;1438;50.922;6.704;2023-05-19T04:48:02;10.10;;;8.75;;
2860;SDS011;1438;50.922;6.704;2023-05-19T04:50:28;17.10;;;8.80;;
2860;SDS011;1438;50.922;6.704;2023-05-19T04:52:56;11.15;;;7.93;;
2860;SDS011;1438;50.922;6.704;2023-05-19T04:55:23;11.98;;;8.25;;
2860;SDS011;1438;50.922;6.704;2023-05-19T04:57:49;11.38;;;7.97;;
2860;SDS011;1438;50.922;6.704;2023-05-19T05:00:15;17.77;;;9.07;;
2860;SDS011;1438;50.922;6.704;2023-05-19T05:02:41;13.82;;;9.30;;
2860;SDS011;1438;50.922;6.704;2023-05-19T05:05:07;11.70;;;9.13;;
2860;SDS011;1438;50.922;6.704;2023-05-19T05:07:34;11.20;;;9.90;;
2860;SDS011;1438;50.922;6.704;2023-05-19T05:10:00;12.50;;;9.80;;
2860;SDS011;1438;50.922;6.704;2023-05-19T05:12:26;12.93;;;8.88;;
2860;SDS011;1438;50.922;6.704;2023-05-19T05:14:52;17.95;;;10.70;;
2860;SDS011;1438;50.922;6.704;2023-05-19T05:17:18;14.57;;;8.32;;
2860;SDS011;1438;50.922;6.704;2023-05-19T05:19:45;12.23;;;9.85;;
2860;SDS011;1438;50.922;6.704;2023-05-19T05:22:12;17.27;;;10.60;;
2860;SDS011;1438;50.922;6.704;2023-05-19T05:24:38;13.13;;;10.38;;
2860;SDS011;1438;50.922;6.704;2023-05-19T05:27:05;17.88;;;10.02;;
2860;SDS011;1438;50.922;6.704;2023-05-19T05:29:32;14.75;;;11.65;;
2860;SDS011;1438;50.922;6.704;2023-05-19T05:31:58;14.27;;;10.13;;
2860;SDS011;1438;50.922;6.704;2023-05-19T05:34:24;20.95;;;13.00;;
2860;SDS011;1438;50.922;6.704;2023-05-19T05:36:50;15.57;;;10.57;;
2860;SDS011;1438;50.922;6.704;2023-05-19T05:39:16;15.70;;;11.85;;
2860;SDS011;1438;50.922;6.704;2023-05-19T05:41:42;23.55;;;12.07;;
2860;SDS011;1438;50.922;6.704;2023-05-19T05:44:08;17.15;;;10.68;;
2860;SDS011;1438;50.922;6.704;2023-05-19T05:46:34;15.40;;;11.90;;
2860;SDS011;1438;50.922;6.704;2023-05-19T05:49:00;21.15;;;11.98;;
2860;SDS011;1438;50.922;6.704;2023-05-19T05:51:26;14.68;;;11.02;;
2860;SDS011;1438;50.922;6.704;2023-05-19T05:53:53;11.70;;;9.38;;
2860;SDS011;1438;50.922;6.704;2023-05-19T05:56:19;12.73;;;9.30;;
2860;SDS011;1438;50.922;6.704;2023-05-19T05:58:46;16.80;;;8.88;;
2860;SDS011;1438;50.922;6.704;2023-05-19T06:01:12;24.10;;;11.15;;
2860;SDS011;1438;50.922;6.704;2023-05-19T06:03:40;11.13;;;9.18;;
2860;SDS011;1438;50.922;6.704;2023-05-19T06:06:09;13.35;;;10.07;;
2860;SDS011;1438;50.922;6.704;2023-05-19T06:08:35;14.93;;;10.85;;
2860;SDS011;1438;50.922;6.704;2023-05-19T06:11:01;11.95;;;9.30;;
2860;SDS011;1438;50.922;6.704;2023-05-19T06:13:34;14.52;;;8.60;;
2860;SDS011;1438;50.922;6.704;2023-05-19T06:16:00;16.73;;;8.88;;
2860;SDS011;1438;50.922;6.704;2023-05-19T06:18:26;11.98;;;8.50;;
2860;SDS011;1438;50.922;6.704;2023-05-19T06:20:52;13.23;;;8.60;;
2860;SDS011;1438;50.922;6.704;2023-05-19T06:23:18;11.00;;;8.30;;
2860;SDS011;1438;50.922;6.704;2023-05-19T06:25:45;13.65;;;8.57;;
2860;SDS011;1438;50.922;6.704;2023-05-19T06:28:11;7.40;;;6.70;;
2860;SDS011;1438;50.922;6.704;2023-05-19T06:30:37;7.03;;;3.63;;
2860;SDS011;1438;50.922;6.704;2023-05-19T06:33:03;14.70;;;3.73;;
2860;SDS011;1438;50.922;6.704;2023-05-19T06:35:29;6.45;;;3.70;;
2860;SDS011;1438;50.922;6.704;2023-05-19T06:37:55;7.57;;;3.10;;
2860;SDS011;1438;50.922;6.704;2023-05-19T06:40:22;6.30;;;3.20;;
2860;SDS011;1438;50.922;6.704;2023-05-19T06:42:48;4.72;;;3.10;;
2860;SDS011;1438;50.922;6.704;2023-05-19T06:45:14;9.23;;;3.20;;
2860;SDS011;1438;50.922;6.704;2023-05-19T06:47:40;5.57;;;2.92;;
2860;SDS011;1438;50.922;6.704;2023-05-19T06:50:07;5.17;;;2.63;;
2860;SDS011;1438;50.922;6.704;2023-05-19T06:52:34;4.93;;;2.58;;
2860;SDS011;1438;50.922;6.704;2023-05-19T06:55:00;15.00;;;2.40;;
2860;SDS011;1438;50.922;6.704;2023-05-19T06:57:26;7.67;;;3.40;;
2860;SDS011;1438;50.922;6.704;2023-05-19T06:59:52;5.57;;;2.50;;
2860;SDS011;1438;50.922;6.704;2023-05-19T07:02:18;8.93;;;3.00;;
2860;SDS011;1438;50.922;6.704;2023-05-19T07:04:44;10.37;;;2.83;;
2860;SDS011;1438;50.922;6.704;2023-05-19T07:07:11;4.47;;;2.73;;
2860;SDS011;1438;50.922;6.704;2023-05-19T07:09:37;5.77;;;2.60;;
2860;SDS011;1438;50.922;6.704;2023-05-19T07:12:03;6.70;;;2.67;;
2860;SDS011;1438;50.922;6.704;2023-05-19T07:14:29;5.87;;;2.90;;
2860;SDS011;1438;50.922;6.704;2023-05-19T07:16:55;9.83;;;4.60;;
2860;SDS011;1438;50.922;6.704;2023-05-19T07:19:21;8.13;;;3.13;;
2860;SDS011;1438;50.922;6.704;2023-05-19T07:21:48;5.40;;;2.73;;
2860;SDS011;1438;50.922;6.704;2023-05-19T07:24:14;7.03;;;3.13;;
2860;SDS011;1438;50.922;6.704;2023-05-19T07:26:40;8.90;;;3.00;;
2860;SDS011;1438;50.922;6.704;2023-05-19T07:29:06;6.73;;;3.03;;
2860;SDS011;1438;50.922;6.704;2023-05-19T07:31:32;6.30;;;2.77;;
2860;SDS011;1438;50.922;6.704;2023-05-19T07:33:58;5.03;;;3.20;;
2860;SDS011;1438;50.922;6.704;2023-05-19T07:36:24;6.30;;;3.43;;
2860;SDS011;1438;50.922;6.704;2023-05-19T07:38:51;4.83;;;2.50;;
2860;SDS011;1438;50.922;6.704;2023-05-19T07:41:17;5.17;;;2.70;;
2860;SDS011;1438;50.922;6.704;2023-05-19T07:43:43;11.93;;;2.70;;
2860;SDS011;1438;50.922;6.704;2023-05-19T07:46:08;6.67;;;2.80;;
2860;SDS011;1438;50.922;6.704;2023-05-19T07:48:35;4.77;;;2.67;;
2860;SDS011;1438;50.922;6.704;2023-05-19T07:51:01;9.53;;;2.67;;
2860;SDS011;1438;50.922;6.704;2023-05-19T07:53:27;7.47;;;2.60;;
2860;SDS011;1438;50.922;6.704;2023-05-19T07:55:53;5.73;;;2.50;;
2860;SDS011;1438;50.922;6.704;2023-05-19T07:58:20;5.03;;;2.40;;
2860;SDS011;1438;50.922;6.704;2023-05-19T08:00:46;3.90;;;1.83;;
2860;SDS011;1438;50.922;6.704;2023-05-19T08:03:12;6.50;;;2.47;;
2860;SDS011;1438;50.922;6.704;2023-05-19T08:05:41;9.47;;;2.63;;
2860;SDS011;1438;50.922;6.704;2023-05-19T08:08:07;5.13;;;1.73;;
2860;SDS011;1438;50.922;6.704;2023-05-19T08:10:33;4.83;;;2.07;;
2860;SDS011;1438;50.922;6.704;2023-05-19T08:12:59;9.37;;;2.20;;
2860;SDS011;1438;50.922;6.704;2023-05-19T08:15:25;6.60;;;2.47;;
2860;SDS011;1438;50.922;6.704;2023-05-19T08:17:51;26.27;;;3.70;;
2860;SDS011;1438;50.922;6.704;2023-05-19T08:20:17;2.97;;;1.43;;
2860;SDS011;1438;50.922;6.704;2023-05-19T08:22:44;4.37;;;2.10;;
2860;SDS011;1438;50.922;6.704;2023-05-19T08:25:10;4.17;;;1.70;;
2860;SDS011;1438;50.922;6.704;2023-05-19T08:27:36;2.93;;;1.80;;
2860;SDS011;1438;50.922;6.704;2023-05-19T08:30:02;4.13;;;1.73;;
2860;SDS011;1438;50.922;6.704;2023-05-19T08:32:28;5.80;;;2.10;;
2860;SDS011;1438;50.922;6.704;2023-05-19T08:34:54;4.30;;;2.20;;
2860;SDS011;1438;50.922;6.704;2023-05-19T08:37:20;5.93;;;2.33;;
2860;SDS011;1438;50.922;6.704;2023-05-19T08:39:46;5.90;;;2.00;;
2860;SDS011;1438;50.922;6.704;2023-05-19T08:42:12;5.17;;;2.37;;
2860;SDS011;1438;50.922;6.704;2023-05-19T08:44:38;4.43;;;1.77;;
2860;SDS011;1438;50.922;6.704;2023-05-19T08:47:06;7.50;;;2.00;;
2860;SDS011;1438;50.922;6.704;2023-05-19T08:49:41;2.83;;;1.70;;
2860;SDS011;1438;50.922;6.704;2023-05-19T08:52:23;5.13;;;1.50;;
2860;SDS011;1438;50.922;6.704;2023-05-19T08:57:47;5.87;;;1.80;;
2860;SDS011;1438;50.922;6.704;2023-05-19T09:00:14;5.93;;;2.83;;
2860;SDS011;1438;50.922;6.704;2023-05-19T09:02:41;3.20;;;1.43;;
2860;SDS011;1438;50.922;6.704;2023-05-19T09:05:07;5.93;;;1.90;;
2860;SDS011;1438;50.922;6.704;2023-05-19T09:07:34;4.07;;;1.83;;
2860;SDS011;1438;50.922;6.704;2023-05-19T09:10:01;7.03;;;1.83;;
2860;SDS011;1438;50.922;6.704;2023-05-19T09:12:28;7.23;;;2.50;;
2860;SDS011;1438;50.922;6.704;2023-05-19T09:14:54;5.00;;;1.90;;
2860;SDS011;1438;50.922;6.704;2023-05-19T09:17:21;5.87;;;2.10;;
2860;SDS011;1438;50.922;6.704;2023-05-19T09:19:47;4.00;;;1.97;;
2860;SDS011;1438;50.922;6.704;2023-05-19T09:22:13;6.23;;;2.40;;
2860;SDS011;1438;50.922;6.704;2023-05-19T09:24:39;3.20;;;1.63;;
2860;SDS011;1438;50.922;6.704;2023-05-19T09:27:06;5.67;;;1.60;;
2860;SDS011;1438;50.922;6.704;2023-05-19T09:29:32;5.30;;;2.17;;
2860;SDS011;1438;50.922;6.704;2023-05-19T09:31:58;5.10;;;2.17;;
2860;SDS011;1438;50.922;6.704;2023-05-19T09:34:28;5.77;;;2.10;;
2860;SDS011;1438;50.922;6.704;2023-05-19T09:36:54;6.50;;;2.20;;
2860;SDS011;1438;50.922;6.704;2023-05-19T09:39:21;3.80;;;1.80;;
2860;SDS011;1438;50.922;6.704;2023-05-19T09:41:52;5.97;;;2.00;;
2860;SDS011;1438;50.922;6.704;2023-05-19T09:44:21;4.37;;;2.03;;
2860;SDS011;1438;50.922;6.704;2023-05-19T09:46:48;5.87;;;2.00;;
2860;SDS011;1438;50.922;6.704;2023-05-19T09:49:21;3.97;;;1.80;;
2860;SDS011;1438;50.922;6.704;2023-05-19T09:51:54;4.63;;;2.10;;
2860;SDS011;1438;50.922;6.704;2023-05-19T09:54:21;4.83;;;2.00;;
2860;SDS011;1438;50.922;6.704;2023-05-19T09:56:57;4.93;;;2.07;;
2860;SDS011;1438;50.922;6.704;2023-05-19T09:59:24;3.67;;;2.17;;
2860;SDS011;1438;50.922;6.704;2023-05-19T10:01:53;4.50;;;2.10;;
2860;SDS011;1438;50.922;6.704;2023-05-19T10:04:21;5.63;;;2.67;;
2860;SDS011;1438;50.922;6.704;2023-05-19T10:06:48;6.13;;;1.97;;
2860;SDS011;1438;50.922;6.704;2023-05-19T10:09:24;3.50;;;2.03;;
2860;SDS011;1438;50.922;6.704;2023-05-19T10:11:51;6.10;;;2.33;;
2860;SDS011;1438;50.922;6.704;2023-05-19T10:14:18;6.70;;;2.17;;
2860;SDS011;1438;50.922;6.704;2023-05-19T10:16:48;3.97;;;1.70;;
2860;SDS011;1438;50.922;6.704;2023-05-19T10:19:15;6.40;;;3.10;;
2860;SDS011;1438;50.922;6.704;2023-05-19T10:21:42;6.53;;;1.90;;
2860;SDS011;1438;50.922;6.704;2023-05-19T10:24:08;4.83;;;2.20;;
2860;SDS011;1438;50.922;6.704;2023-05-19T10:26:34;4.80;;;2.00;;
2860;SDS011;1438;50.922;6.704;2023-05-19T10:29:01;29.63;;;6.83;;
2860;SDS011;1438;50.922;6.704;2023-05-19T10:31:27;8.50;;;3.67;;
2860;SDS011;1438;50.922;6.704;2023-05-19T10:33:59;6.63;;;2.47;;
2860;SDS011;1438;50.922;6.704;2023-05-19T10:36:33;6.87;;;2.77;;
2860;SDS011;1438;50.922;6.704;2023-05-19T10:39:05;4.57;;;2.47;;
2860;SDS011;1438;50.922;6.704;2023-05-19T10:46:26;3.70;;;1.70;;
2860;SDS011;1438;50.922;6.704;2023-05-19T10:48:53;7.53;;;2.03;;
2860;SDS011;1438;50.922;6.704;2023-05-19T10:51:19;5.90;;;2.73;;
2860;SDS011;1438;50.922;6.704;2023-05-19T10:53:46;3.90;;;1.73;;
2860;SDS011;1438;50.922;6.704;2023-05-19T10:56:30;4.13;;;2.00;;
2860;SDS011;1438;50.922;6.704;2023-05-19T10:59:00;4.20;;;1.80;;
2860;SDS011;1438;50.922;6.704;2023-05-19T11:01:33;6.60;;;2.10;;
2860;SDS011;1438;50.922;6.704;2023-05-19T11:04:09;6.20;;;2.03;;
2860;SDS011;1438;50.922;6.704;2023-05-19T11:06:37;3.37;;;1.87;;
2860;SDS011;1438;50.922;6.704;2023-05-19T11:11:49;5.13;;;1.93;;
2860;SDS011;1438;50.922;6.704;2023-05-19T11:14:17;3.40;;;1.87;;
2860;SDS011;1438;50.922;6.704;2023-05-19T11:16:45;3.77;;;2.20;;
2860;SDS011;1438;50.922;6.704;2023-05-19T11:19:50;3.10;;;2.00;;
2860;SDS011;1438;50.922;6.704;2023-05-19T11:22:09;3.53;;;2.17;;
2860;SDS011;1438;50.922;6.704;2023-05-19T11:24:45;3.57;;;2.07;;
2860;SDS011;1438;50.922;6.704;2023-05-19T11:29:44;4.73;;;1.80;;
2860;SDS011;1438;50.922;6.704;2023-05-19T11:32:12;3.67;;;1.90;;
2860;SDS011;1438;50.922;6.704;2023-05-19T11:34:38;6.90;;;2.10;;
2860;SDS011;1438;50.922;6.704;2023-05-19T11:37:04;2.80;;;1.93;;
2860;SDS011;1438;50.922;6.704;2023-05-19T11:39:31;3.90;;;1.70;;
2860;SDS011;1438;50.922;6.704;2023-05-19T11:41:57;2.97;;;1.80;;
2860;SDS011;1438;50.922;6.704;2023-05-19T11:44:23;8.93;;;1.93;;
2860;SDS011;1438;50.922;6.704;2023-05-19T11:46:49;4.33;;;1.77;;
2860;SDS011;1438;50.922;6.704;2023-05-19T11:49:15;5.03;;;2.43;;
2860;SDS011;1438;50.922;6.704;2023-05-19T11:51:44;4.23;;;2.10;;
2860;SDS011;1438;50.922;6.704;2023-05-19T11:54:10;4.57;;;2.13;;
2860;SDS011;1438;50.922;6.704;2023-05-19T11:56:40;4.40;;;1.83;;
2860;SDS011;1438;50.922;6.704;2023-05-19T11:59:09;5.83;;;1.63;;
2860;SDS011;1438;50.922;6.704;2023-05-19T12:01:35;4.53;;;2.00;;
2860;SDS011;1438;50.922;6.704;2023-05-19T12:04:02;7.37;;;1.87;;
2860;SDS011;1438;50.922;6.704;2023-05-19T12:06:32;4.90;;;1.83;;
2860;SDS011;1438;50.922;6.704;2023-05-19T12:08:58;4.33;;;1.70;;
2860;SDS011;1438;50.922;6.704;2023-05-19T12:11:26;3.33;;;1.80;;
2860;SDS011;1438;50.922;6.704;2023-05-19T12:13:53;4.27;;;2.17;;
2860;SDS011;1438;50.922;6.704;2023-05-19T12:16:20;5.53;;;1.70;;
2860;SDS011;1438;50.922;6.704;2023-05-19T12:18:46;6.80;;;2.00;;
2860;SDS011;1438;50.922;6.704;2023-05-19T12:21:12;3.47;;;1.90;;
2860;SDS011;1438;50.922;6.704;2023-05-19T12:23:38;7.37;;;1.90;;
2860;SDS011;1438;50.922;6.704;2023-05-19T12:26:05;8.03;;;2.03;;
2860;SDS011;1438;50.922;6.704;2023-05-19T12:28:31;4.93;;;1.63;;
2860;SDS011;1438;50.922;6.704;2023-05-19T12:30:57;2.30;;;1.63;;
2860;SDS011;1438;50.922;6.704;2023-05-19T12:33:23;4.70;;;2.10;;
2860;SDS011;1438;50.922;6.704;2023-05-19T12:35:50;6.23;;;2.20;;
2860;SDS011;1438;50.922;6.704;2023-05-19T12:38:17;10.53;;;2.07;;
2860;SDS011;1438;50.922;6.704;2023-05-19T12:40:44;5.27;;;2.13;;
2860;SDS011;1438;50.922;6.704;2023-05-19T12:43:22;3.43;;;1.77;;
2860;SDS011;1438;50.922;6.704;2023-05-19T12:45:48;3.40;;;1.70;;
2860;SDS011;1438;50.922;6.704;2023-05-19T12:48:14;8.33;;;2.10;;
2860;SDS011;1438;50.922;6.704;2023-05-19T12:50:41;5.40;;;1.97;;
2860;SDS011;1438;50.922;6.704;2023-05-19T12:53:09;2.90;;;1.80;;
2860;SDS011;1438;50.922;6.704;2023-05-19T12:55:42;2.97;;;1.63;;
2860;SDS011;1438;50.922;6.704;2023-05-19T12:58:09;6.27;;;2.30;;
2860;SDS011;1438;50.922;6.704;2023-05-19T13:00:57;3.47;;;1.40;;
2860;SDS011;1438;50.922;6.704;2023-05-19T13:03:24;5.93;;;2.20;;
2860;SDS011;1438;50.922;6.704;2023-05-19T13:05:50;5.80;;;2.10;;
2860;SDS011;1438;50.922;6.704;2023-05-19T13:08:20;4.50;;;2.00;;
2860;SDS011;1438;50.922;6.704;2023-05-19T13:10:47;3.03;;;1.47;;
2860;SDS011;1438;50.922;6.704;2023-05-19T13:13:13;4.47;;;2.33;;
2860;SDS011;1438;50.922;6.704;2023-05-19T13:15:41;3.40;;;1.60;;
2860;SDS011;1438;50.922;6.704;2023-05-19T13:18:08;4.00;;;1.80;;
2860;SDS011;1438;50.922;6.704;2023-05-19T13:20:34;3.43;;;1.70;;
2860;SDS011;1438;50.922;6.704;2023-05-19T13:23:01;3.00;;;1.90;;
2860;SDS011;1438;50.922;6.704;2023-05-19T13:25:27;2.47;;;1.60;;
2860;SDS011;1438;50.922;6.704;2023-05-19T13:27:53;2.27;;;1.63;;
2860;SDS011;1438;50.922;6.704;2023-05-19T13:30:20;5.70;;;2.50;;
2860;SDS011;1438;50.922;6.704;2023-05-19T13:32:47;3.30;;;1.67;;
2860;SDS011;1438;50.922;6.704;2023-05-19T13:35:14;3.63;;;2.10;;
2860;SDS011;1438;50.922;6.704;2023-05-19T13:37:40;6.93;;;2.50;;
2860;SDS011;1438;50.922;6.704;2023-05-19T13:40:07;2.90;;;1.63;;
2860;SDS011;1438;50.922;6.704;2023-05-19T13:42:33;4.97;;;1.87;;
2860;SDS011;1438;50.922;6.704;2023-05-19T13:44:59;4.43;;;1.90;;
2860;SDS011;1438;50.922;6.704;2023-05-19T13:47:26;5.10;;;1.90;;
2860;SDS011;1438;50.922;6.704;2023-05-19T13:49:52;4.40;;;1.80;;
2860;SDS011;1438;50.922;6.704;2023-05-19T13:52:21;2.60;;;1.57;;
2860;SDS011;1438;50.922;6.704;2023-05-19T13:54:47;5.27;;;2.10;;
2860;SDS011;1438;50.922;6.704;2023-05-19T13:57:14;2.57;;;1.70;;
2860;SDS011;1438;50.922;6.704;2023-05-19T13:59:40;4.33;;;2.30;;
2860;SDS011;1438;50.922;6.704;2023-05-19T14:02:06;6.47;;;1.90;;
2860;SDS011;1438;50.922;6.704;2023-05-19T14:04:35;6.27;;;2.43;;
2860;SDS011;1438;50.922;6.704;2023-05-19T14:07:01;4.40;;;2.40;;
2860;SDS011;1438;50.922;6.704;2023-05-19T14:09:27;3.00;;;2.13;;
2860;SDS011;1438;50.922;6.704;2023-05-19T14:11:53;8.07;;;1.93;;
2860;SDS011;1438;50.922;6.704;2023-05-19T14:14:19;4.00;;;1.97;;
2860;SDS011;1438;50.922;6.704;2023-05-19T14:16:45;5.37;;;2.00;;
2860;SDS011;1438;50.922;6.704;2023-05-19T14:19:11;3.30;;;2.33;;
2860;SDS011;1438;50.922;6.704;2023-05-19T14:21:38;6.23;;;2.43;;
2860;SDS011;1438;50.922;6.704;2023-05-19T14:24:04;5.17;;;2.03;;
2860;SDS011;1438;50.922;6.704;2023-05-19T14:26:30;4.90;;;2.20;;
2860;SDS011;1438;50.922;6.704;2023-05-19T14:28:56;5.67;;;2.27;;
2860;SDS011;1438;50.922;6.704;2023-05-19T14:31:22;5.60;;;2.17;;
2860;SDS011;1438;50.922;6.704;2023-05-19T14:33:50;6.90;;;2.53;;
2860;SDS011;1438;50.922;6.704;2023-05-19T14:36:16;6.00;;;2.30;;
2860;SDS011;1438;50.922;6.704;2023-05-19T14:38:42;8.40;;;1.90;;
2860;SDS011;1438;50.922;6.704;2023-05-19T14:41:08;6.07;;;2.10;;
2860;SDS011;1438;50.922;6.704;2023-05-19T14:43:34;13.40;;;3.30;;
2860;SDS011;1438;50.922;6.704;2023-05-19T14:46:00;10.50;;;2.40;;
2860;SDS011;1438;50.922;6.704;2023-05-19T14:48:26;5.13;;;1.87;;
2860;SDS011;1438;50.922;6.704;2023-05-19T14:50:52;6.53;;;2.20;;
2860;SDS011;1438;50.922;6.704;2023-05-19T14:53:18;6.20;;;2.73;;
2860;SDS011;1438;50.922;6.704;2023-05-19T14:55:47;6.73;;;2.43;;
2860;SDS011;1438;50.922;6.704;2023-05-19T14:58:13;5.87;;;1.97;;
2860;SDS011;1438;50.922;6.704;2023-05-19T15:00:41;5.03;;;2.03;;
2860;SDS011;1438;50.922;6.704;2023-05-19T15:03:07;3.90;;;2.10;;
2860;SDS011;1438;50.922;6.704;2023-05-19T15:05:33;4.00;;;1.90;;
2860;SDS011;1438;50.922;6.704;2023-05-19T15:07:59;7.40;;;2.40;;
2860;SDS011;1438;50.922;6.704;2023-05-19T15:10:25;3.00;;;1.60;;
2860;SDS011;1438;50.922;6.704;2023-05-19T15:12:51;4.67;;;2.13;;
2860;SDS011;1438;50.922;6.704;2023-05-19T15:15:17;3.20;;;2.30;;
2860;SDS011;1438;50.922;6.704;2023-05-19T15:17:43;5.40;;;2.00;;
2860;SDS011;1438;50.922;6.704;2023-05-19T15:20:11;4.83;;;2.10;;
2860;SDS011;1438;50.922;6.704;2023-05-19T15:22:37;5.63;;;2.03;;
2860;SDS011;1438;50.922;6.704;2023-05-19T15:25:03;6.03;;;1.83;;
2860;SDS011;1438;50.922;6.704;2023-05-19T15:27:29;5.03;;;2.23;;
2860;SDS011;1438;50.922;6.704;2023-05-19T15:29:56;3.10;;;1.67;;
2860;SDS011;1438;50.922;6.704;2023-05-19T15:32:22;2.67;;;1.80;;
2860;SDS011;1438;50.922;6.704;2023-05-19T15:34:48;5.07;;;1.80;;
2860;SDS011;1438;50.922;6.704;2023-05-19T15:37:14;2.67;;;1.87;;
2860;SDS011;1438;50.922;6.704;2023-05-19T15:39:40;2.50;;;1.77;;
2860;SDS011;1438;50.922;6.704;2023-05-19T15:42:06;7.40;;;1.90;;
2860;SDS011;1438;50.922;6.704;2023-05-19T15:44:32;3.10;;;1.67;;
2860;SDS011;1438;50.922;6.704;2023-05-19T15:47:00;3.53;;;1.70;;
2860;SDS011;1438;50.922;6.704;2023-05-19T15:49:26;4.33;;;1.83;;